Terminal Aerodrome Forecast
Issued by NWS Mt. Holly, NJ

Current Version | Previous Version | Text Only | Print | Product List | Glossary On
Versions: 1 2 3 4 5 6 7 8 9 10 11 12 13 14 15 16 17 18 19 20
571
FTUS41 KPHI 230732 AAB
TAFTTN
TAF AMD
KTTN 230732Z 2308/2406 32003KT P6SM FEW015
      TEMPO 2308/2310 1SM BR VV004
     FM231000 01006KT P6SM SCT070
     FM231500 05006KT P6SM BKN150
     FM232200 VRB05KT P6SM BKN035=

USA.gov is the U.S. government's official web portal to all federal, state and local government web resources and services.